createdAt,value
2019-02-24T00:02:16.806Z,3.22
2019-02-24T00:04:47.011Z,3.17
2019-02-24T00:07:17.385Z,3.15
2019-02-24T00:09:47.710Z,3.13
2019-02-24T00:12:17.876Z,3.11
2019-02-24T00:14:48.118Z,3.06
2019-02-24T00:17:18.378Z,3.04
2019-02-24T00:19:48.527Z,3.01
2019-02-24T00:22:18.815Z,2.99
2019-02-24T00:24:49.026Z,2.97
2019-02-24T00:27:19.071Z,2.94
2019-02-24T00:29:49.220Z,2.92
2019-02-24T00:32:19.513Z,2.88
2019-02-24T00:34:49.766Z,2.85
2019-02-24T00:37:19.867Z,2.81
2019-02-24T00:39:49.990Z,2.78
2019-02-24T00:42:20.085Z,2.75
2019-02-24T00:44:50.234Z,2.71
2019-02-24T00:47:20.458Z,2.70
2019-02-24T00:49:50.723Z,2.66
2019-02-24T00:52:21.786Z,2.67
2019-02-24T00:54:52.054Z,2.67
2019-02-24T00:57:22.340Z,2.70
2019-02-24T00:59:52.518Z,2.69
2019-02-24T01:02:22.617Z,2.66
2019-02-24T01:04:52.775Z,2.63
2019-02-24T01:07:23.066Z,2.59
2019-02-24T01:09:53.172Z,2.56
2019-02-24T01:12:23.337Z,2.54
2019-02-24T01:14:53.460Z,2.52
2019-02-24T01:17:23.545Z,2.50
2019-02-24T01:19:53.848Z,2.50
2019-02-24T01:22:23.913Z,2.49
2019-02-24T01:24:54.004Z,2.46
2019-02-24T01:27:24.150Z,2.46
2019-02-24T01:29:54.374Z,2.44
2019-02-24T01:32:24.496Z,2.42
2019-02-24T01:34:54.728Z,2.41
2019-02-24T01:37:25.034Z,2.38
2019-02-24T01:39:55.250Z,2.34
2019-02-24T01:42:25.990Z,2.30
2019-02-24T01:44:56.138Z,2.28
2019-02-24T01:47:26.289Z,2.26
2019-02-24T01:49:56.558Z,2.19
2019-02-24T01:52:26.693Z,2.15
2019-02-24T01:54:56.871Z,2.12
2019-02-24T01:57:27.018Z,2.05
2019-02-24T01:59:57.170Z,2.00
2019-02-24T02:02:27.309Z,1.95
2019-02-24T02:04:58.581Z,1.90
2019-02-24T02:07:28.965Z,1.88
2019-02-24T02:09:59.172Z,1.84
2019-02-24T02:12:29.907Z,1.79
2019-02-24T02:15:02.630Z,1.75
2019-02-24T02:17:32.849Z,1.69
2019-02-24T02:20:03.149Z,1.72
2019-02-24T02:22:33.329Z,1.75
2019-02-24T02:25:03.726Z,1.81
2019-02-24T02:27:34.040Z,1.84
2019-02-24T02:30:04.381Z,1.92
2019-02-24T02:32:34.630Z,2.03
2019-02-24T02:35:05.744Z,2.12
2019-02-24T02:37:36.094Z,2.18
2019-02-24T02:40:06.920Z,2.22
2019-02-24T02:42:37.078Z,2.26
2019-02-24T02:45:08.080Z,2.29
2019-02-24T02:47:38.163Z,2.29
2019-02-24T02:50:08.398Z,2.34
2019-02-24T02:52:38.519Z,2.32
2019-02-24T02:55:08.820Z,2.31
2019-02-24T02:57:38.998Z,2.30
2019-02-24T03:00:36.712Z,2.30
2019-02-24T03:03:06.917Z,2.26
2019-02-24T03:05:37.166Z,2.20
2019-02-24T03:08:12.305Z,2.16
2019-02-24T03:10:42.596Z,2.12
2019-02-24T03:13:12.673Z,2.03
2019-02-24T03:15:42.750Z,1.95
2019-02-24T03:18:12.886Z,1.90
2019-02-24T03:20:44.307Z,1.82
2019-02-24T03:23:14.382Z,1.80
2019-02-24T03:25:44.542Z,1.75
2019-02-24T03:28:14.702Z,1.72
2019-02-24T03:30:44.834Z,1.69
2019-02-24T03:33:14.898Z,1.64
2019-02-24T03:35:45.087Z,1.61
2019-02-24T03:38:15.224Z,1.55
2019-02-24T03:40:45.514Z,1.53
2019-02-24T03:43:15.809Z,1.48
2019-02-24T03:45:45.970Z,1.42
2019-02-24T03:48:16.172Z,1.36
2019-02-24T03:50:46.244Z,1.32
2019-02-24T03:53:16.394Z,1.28
2019-02-24T03:55:46.500Z,1.20
2019-02-24T03:58:16.761Z,1.18
2019-02-24T04:00:46.949Z,1.15
2019-02-24T04:03:17.242Z,1.11
2019-02-24T04:05:47.410Z,1.08
2019-02-24T04:08:17.632Z,1.01
2019-02-24T04:10:47.916Z,0.95
2019-02-24T04:13:18.075Z,0.91
2019-02-24T04:15:48.396Z,0.88
2019-02-24T04:18:18.643Z,0.83
2019-02-24T04:20:48.804Z,0.82
2019-02-24T04:23:18.902Z,0.79
2019-02-24T04:25:49.055Z,0.82
2019-02-24T04:28:19.424Z,0.83
2019-02-24T04:30:49.581Z,0.85
2019-02-24T04:33:27.644Z,0.86
2019-02-24T04:36:06.079Z,0.82
2019-02-24T04:38:36.331Z,0.78
2019-02-24T04:41:06.949Z,0.75
2019-02-24T04:43:37.256Z,0.75
2019-02-24T04:46:07.308Z,0.73
2019-02-24T04:48:37.567Z,0.76
2019-02-24T04:51:07.763Z,0.77
2019-02-24T04:53:41.113Z,0.83
2019-02-24T04:56:11.192Z,0.85
2019-02-24T04:58:41.721Z,0.85
2019-02-24T05:01:12.110Z,0.84
2019-02-24T05:03:42.631Z,0.84
2019-02-24T05:06:13.187Z,0.83
2019-02-24T05:08:43.598Z,0.79
2019-02-24T05:11:18.641Z,0.75
2019-02-24T05:13:49.217Z,0.71
2019-02-24T05:16:19.691Z,0.63
2019-02-24T05:18:50.331Z,0.64
2019-02-24T05:21:20.665Z,0.62
2019-02-24T05:23:51.168Z,0.60
2019-02-24T05:26:21.675Z,0.55
2019-02-24T05:28:52.147Z,0.55
2019-02-24T05:33:52.691Z,0.61
2019-02-24T05:36:23.184Z,0.61
2019-02-24T05:38:53.768Z,0.66
2019-02-24T05:41:24.409Z,0.70
2019-02-24T05:43:54.890Z,0.72
2019-02-24T05:46:25.325Z,0.73
2019-02-24T05:48:55.852Z,0.68
2019-02-24T05:51:26.393Z,0.66
2019-02-24T05:53:56.880Z,0.62
2019-02-24T05:56:27.324Z,0.60
2019-02-24T05:58:57.840Z,0.58
2019-02-24T06:01:28.368Z,0.55
2019-02-24T06:03:58.720Z,0.50
2019-02-24T06:06:29.273Z,0.51
2019-02-24T06:11:47.111Z,0.71
2019-02-24T06:14:17.703Z,0.65
2019-02-24T06:16:48.166Z,0.62
2019-02-24T06:19:18.778Z,0.62
2019-02-24T06:21:49.074Z,0.65
2019-02-24T06:24:19.525Z,0.64
2019-02-24T06:26:50.059Z,0.68
2019-02-24T06:29:20.579Z,0.66
2019-02-24T06:31:51.452Z,0.66
2019-02-24T06:34:22.251Z,0.64
2019-02-24T06:36:52.874Z,0.60
2019-02-24T06:39:23.209Z,0.56
2019-02-24T06:41:53.724Z,0.54
2019-02-24T06:44:23.883Z,0.55
2019-02-24T06:46:54.110Z,0.53
2019-02-24T06:49:24.267Z,0.51
2019-02-24T06:51:54.513Z,0.49
2019-02-24T06:54:24.577Z,0.47
2019-02-24T06:56:54.994Z,0.46
2019-02-24T06:59:25.320Z,0.47
2019-02-24T07:02:08.789Z,0.47
2019-02-24T07:04:38.911Z,0.50
2019-02-24T07:07:09.105Z,0.52
2019-02-24T07:09:39.390Z,0.53
2019-02-24T07:12:09.552Z,0.53
2019-02-24T07:14:39.730Z,0.59
2019-02-24T07:17:09.981Z,0.67
2019-02-24T07:19:40.337Z,0.79
2019-02-24T07:22:10.627Z,0.90
2019-02-24T07:24:43.857Z,0.99
2019-02-24T07:27:14.205Z,1.11
2019-02-24T07:29:44.468Z,1.18
2019-02-24T07:32:14.695Z,1.27
2019-02-24T07:34:44.884Z,1.36
2019-02-24T07:37:17.272Z,1.46
2019-02-24T07:39:49.724Z,1.54
2019-02-24T07:42:20.240Z,1.62
2019-02-24T07:44:50.569Z,1.70
2019-02-24T07:47:20.932Z,1.79
2019-02-24T07:49:51.245Z,1.90
2019-02-24T07:52:21.485Z,2.01
2019-02-24T07:54:51.715Z,2.12
2019-02-24T07:57:21.901Z,2.28
2019-02-24T07:59:52.074Z,2.40
2019-02-24T08:02:22.350Z,2.53
2019-02-24T08:04:52.596Z,2.68
2019-02-24T08:07:22.740Z,2.79
2019-02-24T08:09:52.871Z,2.88
2019-02-24T08:12:23.070Z,2.98
2019-02-24T08:14:53.252Z,3.06
2019-02-24T08:17:25.771Z,3.18
2019-02-24T08:19:55.248Z,3.28
2019-02-24T08:22:25.550Z,3.38
2019-02-24T08:25:00.274Z,3.49
2019-02-24T08:27:30.507Z,3.58
2019-02-24T08:30:02.539Z,3.66
2019-02-24T08:32:32.768Z,3.74
2019-02-24T08:35:02.951Z,3.84
2019-02-24T08:37:33.255Z,3.94
2019-02-24T08:40:03.633Z,4.04
2019-02-24T08:42:33.859Z,4.16
2019-02-24T08:45:04.158Z,4.27
2019-02-24T08:47:34.416Z,4.35
2019-02-24T08:50:05.278Z,4.44
2019-02-24T08:52:35.563Z,4.52
2019-02-24T08:55:07.010Z,4.59
2019-02-24T08:57:37.216Z,4.65
2019-02-24T09:00:09.752Z,4.72
2019-02-24T09:02:39.930Z,4.81
2019-02-24T09:05:15.925Z,4.90
2019-02-24T09:07:46.069Z,4.98
2019-02-24T09:10:19.304Z,5.04
2019-02-24T09:12:49.567Z,5.12
2019-02-24T09:15:20.087Z,5.25
2019-02-24T09:17:50.316Z,5.33
2019-02-24T09:20:20.594Z,5.44
2019-02-24T09:22:50.836Z,5.55
2019-02-24T09:25:21.045Z,5.67
2019-02-24T09:27:51.371Z,5.79
2019-02-24T09:30:21.495Z,5.94
2019-02-24T09:32:51.596Z,6.09
2019-02-24T09:35:21.819Z,6.19
2019-02-24T09:37:51.973Z,6.30
2019-02-24T09:40:22.134Z,6.41
2019-02-24T09:42:52.291Z,6.54
2019-02-24T09:45:22.507Z,6.64
2019-02-24T09:47:52.739Z,6.75
2019-02-24T09:50:24.320Z,6.84
2019-02-24T09:52:54.672Z,6.91
2019-02-24T09:55:25.002Z,6.98
2019-02-24T09:57:55.464Z,7.05
2019-02-24T10:00:25.610Z,7.10
2019-02-24T10:02:57.525Z,7.17
2019-02-24T10:05:27.961Z,7.23
2019-02-24T10:07:59.287Z,7.29
2019-02-24T10:10:29.386Z,7.37
2019-02-24T10:12:59.597Z,7.44
2019-02-24T10:15:29.889Z,7.51
2019-02-24T10:18:00.209Z,7.57
2019-02-24T10:20:30.416Z,7.66
2019-02-24T10:23:01.170Z,7.76
2019-02-24T10:25:31.248Z,7.85
2019-02-24T10:28:03.196Z,7.94
2019-02-24T10:30:33.414Z,8.01
2019-02-24T10:33:06.202Z,8.07
2019-02-24T10:35:36.436Z,8.10
2019-02-24T10:38:06.953Z,8.12
2019-02-24T10:40:37.286Z,8.15
2019-02-24T10:43:07.552Z,8.21
2019-02-24T10:45:37.621Z,8.28
2019-02-24T10:48:13.946Z,8.36
2019-02-24T10:50:39.998Z,8.42
2019-02-24T10:53:10.321Z,8.50
2019-02-24T10:55:40.648Z,8.60
2019-02-24T10:58:10.981Z,8.65
2019-02-24T11:00:41.291Z,8.72
2019-02-24T11:03:11.638Z,8.81
2019-02-24T11:05:41.852Z,8.86
2019-02-24T11:08:12.094Z,8.96
2019-02-24T11:10:42.601Z,9.07
2019-02-24T11:13:14.134Z,9.14
2019-02-24T11:15:44.284Z,9.18
2019-02-24T11:18:14.420Z,9.22
2019-02-24T11:20:44.552Z,9.31
2019-02-24T11:23:14.711Z,9.38
2019-02-24T11:25:44.833Z,9.45
2019-02-24T11:28:15.054Z,9.47
2019-02-24T11:30:45.296Z,9.54
2019-02-24T11:33:15.390Z,9.59
2019-02-24T11:35:45.699Z,9.65
2019-02-24T11:38:16.031Z,9.69
2019-02-24T11:40:46.358Z,9.79
2019-02-24T11:43:16.604Z,9.92
2019-02-24T11:45:46.773Z,10.00
2019-02-24T11:48:16.931Z,10.06
2019-02-24T11:50:47.185Z,10.12
2019-02-24T11:53:17.287Z,10.18
2019-02-24T11:55:47.470Z,10.23
2019-02-24T11:58:17.566Z,10.30
2019-02-24T12:00:47.872Z,10.37
2019-02-24T12:03:18.043Z,10.46
2019-02-24T12:05:48.301Z,10.57
2019-02-24T12:08:18.484Z,10.68
2019-02-24T12:10:48.602Z,10.78
2019-02-24T12:13:18.876Z,10.89
2019-02-24T12:15:49.118Z,11.08
2019-02-24T12:18:19.333Z,11.23
2019-02-24T12:20:49.661Z,11.33
2019-02-24T12:23:19.976Z,11.41
2019-02-24T12:25:50.342Z,11.47
2019-02-24T12:28:20.790Z,11.58
2019-02-24T12:30:51.111Z,11.71
2019-02-24T12:33:21.378Z,11.88
2019-02-24T12:35:51.697Z,12.08
2019-02-24T12:38:22.018Z,12.21
2019-02-24T12:40:54.330Z,12.37
2019-02-24T12:43:24.717Z,12.51
2019-02-24T12:45:56.953Z,12.65
2019-02-24T12:48:27.071Z,12.78
2019-02-24T12:50:57.319Z,12.89
2019-02-24T12:53:27.692Z,13.05
2019-02-24T12:55:57.985Z,13.19
2019-02-24T12:58:28.265Z,13.34
2019-02-24T13:00:58.594Z,13.48
2019-02-24T13:03:28.873Z,13.63
2019-02-24T13:05:59.161Z,13.75
2019-02-24T13:08:29.435Z,13.86
2019-02-24T13:10:59.820Z,14.43
2019-02-24T13:13:30.154Z,15.59
2019-02-24T13:16:00.315Z,16.78
2019-02-24T13:18:30.554Z,17.86
2019-02-24T13:21:00.759Z,18.72
2019-02-24T13:23:30.976Z,19.52
2019-02-24T13:26:02.155Z,20.24
2019-02-24T13:28:34.541Z,20.78
2019-02-24T13:31:04.838Z,21.13
2019-02-24T13:33:35.172Z,21.38
2019-02-24T13:36:06.842Z,21.80
2019-02-24T13:38:37.098Z,22.33
2019-02-24T13:41:07.442Z,22.69
2019-02-24T13:43:37.831Z,23.14
2019-02-24T13:46:08.108Z,23.58
2019-02-24T13:48:38.491Z,23.88
2019-02-24T13:51:09.843Z,24.32
2019-02-24T13:53:40.288Z,24.69
2019-02-24T13:56:10.680Z,25.04
2019-02-24T13:58:41.095Z,25.31
2019-02-24T14:01:11.254Z,24.72
2019-02-24T14:03:41.595Z,23.26
2019-02-24T14:06:11.897Z,21.81
2019-02-24T14:08:42.209Z,20.69
2019-02-24T14:11:12.502Z,19.90
2019-02-24T14:13:42.736Z,19.24
2019-02-24T14:16:12.917Z,18.76
2019-02-24T14:18:43.103Z,18.38
2019-02-24T14:21:13.402Z,18.08
2019-02-24T14:23:43.642Z,17.87
2019-02-24T14:26:14.088Z,17.72
2019-02-24T14:28:48.230Z,17.55
2019-02-24T14:31:18.499Z,17.38
2019-02-24T14:33:48.829Z,17.28
2019-02-24T14:36:19.194Z,17.22
2019-02-24T14:38:49.516Z,17.18
2019-02-24T14:41:19.876Z,17.13
2019-02-24T14:43:50.655Z,17.04
2019-02-24T14:46:20.915Z,16.97
2019-02-24T14:48:51.330Z,16.91
2019-02-24T14:51:21.632Z,16.81
2019-02-24T14:53:51.937Z,16.75
2019-02-24T14:56:22.160Z,16.70
2019-02-24T14:58:52.471Z,16.65
2019-02-24T15:01:22.842Z,16.58
2019-02-24T15:03:54.857Z,16.55
2019-02-24T15:06:25.090Z,16.28
2019-02-24T15:08:55.371Z,16.41
2019-02-24T15:11:25.511Z,16.34
2019-02-24T15:13:55.693Z,16.29
2019-02-24T15:16:25.981Z,16.28
2019-02-24T15:18:56.170Z,16.24
2019-02-24T15:21:26.817Z,16.18
2019-02-24T15:23:56.961Z,16.14
2019-02-24T15:26:29.181Z,16.07
2019-02-24T15:28:59.201Z,16.00
2019-02-24T15:31:29.508Z,15.93
2019-02-24T15:33:59.774Z,15.83
2019-02-24T15:36:29.995Z,15.73
2019-02-24T15:39:00.281Z,15.64
2019-02-24T15:41:30.983Z,15.54
2019-02-24T15:44:01.452Z,15.43
2019-02-24T15:46:31.927Z,15.30
2019-02-24T15:49:02.537Z,15.15
2019-02-24T15:51:33.094Z,15.03
2019-02-24T15:54:03.690Z,14.93
2019-02-24T15:56:34.308Z,14.83
2019-02-24T15:59:04.846Z,14.71
2019-02-24T16:01:35.509Z,14.61
2019-02-24T16:04:07.503Z,14.51
2019-02-24T16:06:38.004Z,14.38
2019-02-24T16:09:10.790Z,14.30
2019-02-24T16:11:41.317Z,14.19
2019-02-24T16:14:11.787Z,14.06
2019-02-24T16:16:42.399Z,13.91
2019-02-24T16:19:15.650Z,13.81
2019-02-24T16:21:49.580Z,13.67
2019-02-24T16:24:20.116Z,13.51
2019-02-24T16:26:50.783Z,13.32
2019-02-24T16:29:21.333Z,13.20
2019-02-24T16:31:51.659Z,13.03
2019-02-24T16:34:22.242Z,12.86
2019-02-24T16:36:53.033Z,12.69
2019-02-24T16:39:23.605Z,12.52
2019-02-24T16:41:56.600Z,12.37
2019-02-24T16:44:27.210Z,12.20
2019-02-24T16:46:57.913Z,12.06
2019-02-24T16:49:29.834Z,11.91
2019-02-24T16:52:02.410Z,11.75
2019-02-24T16:54:32.807Z,11.61
2019-02-24T16:57:07.550Z,11.45
2019-02-24T16:59:37.245Z,11.30
2019-02-24T17:02:07.854Z,11.17
2019-02-24T17:04:38.572Z,11.04
2019-02-24T17:07:09.246Z,10.89
2019-02-24T17:09:42.263Z,10.75
2019-02-24T17:12:12.967Z,10.60
2019-02-24T17:14:46.654Z,10.44
2019-02-24T17:17:17.176Z,10.31
2019-02-24T17:19:47.887Z,10.20
2019-02-24T17:22:18.548Z,10.08
2019-02-24T17:24:49.000Z,10.01
2019-02-24T17:27:20.965Z,9.90
2019-02-24T17:29:58.842Z,9.77
2019-02-24T17:32:31.750Z,9.65
2019-02-24T17:35:02.225Z,9.50
2019-02-24T17:37:41.901Z,9.42
2019-02-24T17:40:13.660Z,9.30
2019-02-24T17:42:46.399Z,9.16
2019-02-24T17:45:17.246Z,9.08
2019-02-24T17:47:47.839Z,9.01
2019-02-24T17:50:18.547Z,8.89
2019-02-24T17:52:49.233Z,8.78
2019-02-24T17:55:19.697Z,8.68
2019-02-24T17:57:50.211Z,8.58
2019-02-24T18:00:26.772Z,8.49
2019-02-24T18:02:57.525Z,8.44
2019-02-24T18:05:28.085Z,8.37
2019-02-24T18:07:58.597Z,8.26
2019-02-24T18:10:29.214Z,8.13
2019-02-24T18:12:59.630Z,8.08
2019-02-24T18:15:30.199Z,8.00
2019-02-24T18:18:07.945Z,7.94
2019-02-24T18:20:38.470Z,7.87
2019-02-24T18:23:09.018Z,7.77
2019-02-24T18:25:39.583Z,7.65
2019-02-24T18:28:10.039Z,7.59
2019-02-24T18:30:40.721Z,7.52
2019-02-24T18:33:11.459Z,7.47
2019-02-24T18:35:41.983Z,7.46
2019-02-24T18:40:55.025Z,7.56
2019-02-24T18:43:25.616Z,7.53
2019-02-24T18:45:56.116Z,7.51
2019-02-24T18:48:26.852Z,7.50
2019-02-24T18:50:59.724Z,7.43
2019-02-24T18:53:31.601Z,7.33
2019-02-24T18:56:02.258Z,7.25
2019-02-24T18:58:32.992Z,7.22
2019-02-24T19:01:12.281Z,7.23
2019-02-24T19:03:42.979Z,7.22
2019-02-24T19:06:13.557Z,7.18
2019-02-24T19:08:44.959Z,7.13
2019-02-24T19:11:15.642Z,7.06
2019-02-24T19:13:46.328Z,7.01
2019-02-24T19:16:16.891Z,6.97
2019-02-24T19:18:47.524Z,6.88
2019-02-24T19:21:18.057Z,6.83
2019-02-24T19:23:48.690Z,6.79
2019-02-24T19:26:19.251Z,6.73
2019-02-24T19:28:49.842Z,6.65
2019-02-24T19:31:20.372Z,6.57
2019-02-24T19:33:50.989Z,6.50
2019-02-24T19:36:21.578Z,6.47
2019-02-24T19:41:16.397Z,6.47
2019-02-24T19:43:46.957Z,6.39
2019-02-24T19:46:17.487Z,6.32
2019-02-24T19:48:48.121Z,6.25
2019-02-24T19:53:48.892Z,5.90
2019-02-24T19:56:19.402Z,6.10
2019-02-24T19:58:50.076Z,6.03
2019-02-24T20:01:22.752Z,5.96
2019-02-24T20:03:53.811Z,5.90
2019-02-24T20:06:24.732Z,5.81
2019-02-24T20:08:55.688Z,5.70
2019-02-24T20:11:26.480Z,5.67
2019-02-24T20:13:57.128Z,5.67
2019-02-24T20:16:27.614Z,5.63
2019-02-24T20:18:58.114Z,5.56
2019-02-24T20:21:28.675Z,5.47
2019-02-24T20:23:59.314Z,5.37
2019-02-24T20:26:29.836Z,5.27
2019-02-24T20:29:00.355Z,5.23
2019-02-24T20:31:30.807Z,5.17
2019-02-24T20:34:01.323Z,5.12
2019-02-24T20:36:31.943Z,5.09
2019-02-24T20:39:02.466Z,5.05
2019-02-24T20:41:33.083Z,4.97
2019-02-24T20:44:03.748Z,4.89
2019-02-24T20:46:34.378Z,4.87
2019-02-24T20:49:04.814Z,4.84
2019-02-24T20:51:36.601Z,4.80
2019-02-24T20:54:07.314Z,4.78
2019-02-24T20:56:39.515Z,4.76
2019-02-24T20:59:09.983Z,4.69
2019-02-24T21:01:40.717Z,4.63
2019-02-24T21:04:11.231Z,4.57
2019-02-24T21:06:41.763Z,4.50
2019-02-24T21:09:12.384Z,4.46
2019-02-24T21:11:42.897Z,4.41
2019-02-24T21:14:13.963Z,4.37
2019-02-24T21:16:44.508Z,4.31
2019-02-24T21:19:15.158Z,4.30
2019-02-24T21:21:45.997Z,4.26
2019-02-24T21:24:16.666Z,4.21
2019-02-24T21:26:47.438Z,4.16
2019-02-24T21:29:17.985Z,4.15
2019-02-24T21:31:48.764Z,4.09
2019-02-24T21:34:19.291Z,4.08
2019-02-24T21:36:49.961Z,4.08
2019-02-24T21:39:20.532Z,4.04
2019-02-24T21:41:51.158Z,3.95
2019-02-24T21:44:21.736Z,3.94
2019-02-24T21:46:52.383Z,3.87
2019-02-24T21:49:22.945Z,3.83
2019-02-24T21:51:53.666Z,3.79
2019-02-24T21:54:24.283Z,3.72
2019-02-24T21:56:59.139Z,3.71
2019-02-24T21:59:36.802Z,3.72
2019-02-24T22:02:01.998Z,3.76
2019-02-24T22:04:32.504Z,3.75
2019-02-24T22:07:03.079Z,3.72
2019-02-24T22:09:33.621Z,3.70
2019-02-24T22:12:04.286Z,3.65
2019-02-24T22:14:34.854Z,3.65
2019-02-24T22:17:05.373Z,3.63
2019-02-24T22:19:35.843Z,3.60
2019-02-24T22:22:06.731Z,3.60
2019-02-24T22:24:37.031Z,3.54
2019-02-24T22:27:07.402Z,3.49
2019-02-24T22:29:37.736Z,3.44
2019-02-24T22:32:07.936Z,3.38
2019-02-24T22:34:38.213Z,3.29
2019-02-24T22:37:08.582Z,3.25
2019-02-24T22:39:38.897Z,3.22
2019-02-24T22:42:09.215Z,3.22
2019-02-24T22:44:39.499Z,3.19
2019-02-24T22:47:10.261Z,3.13
2019-02-24T22:49:40.686Z,3.13
2019-02-24T22:52:10.866Z,3.11
2019-02-24T22:54:41.166Z,3.07
2019-02-24T22:57:11.357Z,3.01
2019-02-24T22:59:41.547Z,3.00
2019-02-24T23:02:12.305Z,3.01
2019-02-24T23:04:42.497Z,2.99
2019-02-24T23:07:12.720Z,3.00
2019-02-24T23:09:42.965Z,3.05
2019-02-24T23:12:13.204Z,3.07
2019-02-24T23:14:43.531Z,3.07
2019-02-24T23:17:13.781Z,3.04
2019-02-24T23:19:44.010Z,2.99
2019-02-24T23:22:14.258Z,2.93
2019-02-24T23:24:44.432Z,2.90
2019-02-24T23:27:14.622Z,2.87
2019-02-24T23:29:44.759Z,2.82
2019-02-24T23:32:15.080Z,2.77
2019-02-24T23:34:45.345Z,2.74
2019-02-24T23:37:15.708Z,2.71
2019-02-24T23:39:45.973Z,2.70
2019-02-24T23:42:16.643Z,2.73
2019-02-24T23:44:46.766Z,2.75
2019-02-24T23:47:17.149Z,2.77
2019-02-24T23:49:47.393Z,2.86
2019-02-24T23:52:17.633Z,2.88
2019-02-24T23:54:47.760Z,2.83
2019-02-24T23:57:18.076Z,2.80
2019-02-24T23:59:48.272Z,2.75
